Main page
METAR-TAF:

METAR-TAF

Airports :

RAF Odiham

Odiham, England

latitude: 51-14N, longitude: 000-57W, elevation: 123 m

Current weather observation

The report was made 22 minutes ago, at 23:50 UTC
Wind 15 kt from the Southwest
Temperature 5°C
Humidity 81%
Pressure 1018 hPa
Visibility 10 km or more

METAR: EGVO 172350Z AUTO 22015KT 9999 NCD 05/02 Q1018

Time: 00:12 (00:12 UTC)

Forecast

The report was made 4 hours and 38 minutes ago, at 19:34 UTC
Forecast valid from 17 at 21 UTC to 18 at 09 UTC
Wind 14 kt from the West/Southwest
Visibility 10 km or more
Few clouds at a height of 2500 ft

TAF: EGVO 171934Z 1721/1809 24014KT 9999 FEW025

Weather observations and forecasts of more than 4000 airports (METAR and TAF reports).

The available stations are represented by yellow and red dots on the map.

Hover mouse over dot to see the name of the station.

Then click to see weather observations and forecasts.

To change the map : click on the green buttons with a black cross to zoom in, on the green button with a dash to zoom out, or on the green arrows for adjacent maps.


METAR-TAF: